createdAt,value
2024-04-10T00:00:20.029Z,5.83
2024-04-10T00:02:46.604Z,5.92
2024-04-10T00:05:14.595Z,5.86
2024-04-10T00:07:41.651Z,5.79
2024-04-10T00:10:08.335Z,5.79
2024-04-10T00:12:35.598Z,5.84
2024-04-10T00:15:02.213Z,5.81
2024-04-10T00:17:30.038Z,5.77
2024-04-10T00:19:57.166Z,5.68
2024-04-10T00:22:23.855Z,5.83
2024-04-10T00:24:53.368Z,5.71
2024-04-10T00:27:19.910Z,5.83
2024-04-10T00:29:46.647Z,5.80
2024-04-10T00:32:13.281Z,5.78
2024-04-10T00:34:40.035Z,5.88
2024-04-10T00:37:06.824Z,5.79
2024-04-10T00:39:33.932Z,5.80
2024-04-10T00:42:00.740Z,5.72
2024-04-10T00:44:27.486Z,5.74
2024-04-10T00:46:55.306Z,5.79
2024-04-10T00:49:22.347Z,5.82
2024-04-10T00:51:50.588Z,5.83
2024-04-10T00:54:19.285Z,5.84
2024-04-10T00:56:46.124Z,5.71
2024-04-10T00:59:12.723Z,5.74
2024-04-10T01:01:39.863Z,5.79
2024-04-10T01:04:06.874Z,5.77
2024-04-10T01:06:34.311Z,5.81
2024-04-10T01:09:01.076Z,5.73
2024-04-10T01:11:27.966Z,5.75
2024-04-10T01:13:54.894Z,5.82
2024-04-10T01:16:21.529Z,5.83
2024-04-10T01:18:48.168Z,5.81
2024-04-10T01:21:15.561Z,5.64
2024-04-10T01:23:42.273Z,5.67
2024-04-10T01:26:09.336Z,5.72
2024-04-10T01:28:36.082Z,5.65
2024-04-10T01:31:02.826Z,5.63
2024-04-10T01:33:29.596Z,5.64
2024-04-10T01:35:56.269Z,5.64
2024-04-10T01:38:25.019Z,5.63
2024-04-10T01:40:52.163Z,5.60
2024-04-10T01:43:19.078Z,5.65
2024-04-10T01:45:45.640Z,5.59
2024-04-10T01:48:12.831Z,5.55
2024-04-10T01:50:39.821Z,5.57
2024-04-10T01:53:06.505Z,5.60
2024-04-10T01:55:33.373Z,5.54
2024-04-10T01:58:00.400Z,5.55
2024-04-10T02:00:27.432Z,5.48
2024-04-10T02:02:54.575Z,5.47
2024-04-10T02:05:21.709Z,5.51
2024-04-10T02:07:48.497Z,5.45
2024-04-10T02:10:15.160Z,5.44
2024-04-10T02:12:41.982Z,5.49
2024-04-10T02:15:08.660Z,5.44
2024-04-10T02:17:35.641Z,5.44
2024-04-10T02:20:02.422Z,5.49
2024-04-10T02:22:29.238Z,5.69
2024-04-10T02:24:56.588Z,5.57
2024-04-10T02:27:23.110Z,5.62
2024-04-10T02:29:49.955Z,5.62
2024-04-10T02:32:16.789Z,5.59
2024-04-10T02:34:43.719Z,5.46
2024-04-10T02:37:12.647Z,5.55
2024-04-10T02:39:40.338Z,5.54
2024-04-10T02:42:07.083Z,5.52
2024-04-10T02:44:34.198Z,5.49
2024-04-10T02:47:00.954Z,5.47
2024-04-10T02:49:28.227Z,5.43
2024-04-10T02:51:55.012Z,5.49
2024-04-10T02:54:21.617Z,5.44
2024-04-10T02:56:48.468Z,5.48
2024-04-10T02:59:16.072Z,5.51
2024-04-10T03:01:42.802Z,5.53
2024-04-10T03:04:09.525Z,5.51
2024-04-10T03:06:36.256Z,5.50
2024-04-10T03:09:03.028Z,5.53
2024-04-10T03:11:29.700Z,5.55
2024-04-10T03:13:56.828Z,5.53
2024-04-10T03:16:23.569Z,5.50
2024-04-10T03:18:50.421Z,5.45
2024-04-10T03:21:17.177Z,5.43
2024-04-10T03:23:43.864Z,5.46
2024-04-10T03:26:10.980Z,5.47
2024-04-10T03:28:37.755Z,5.39
2024-04-10T03:31:07.116Z,5.41
2024-04-10T03:33:34.916Z,5.47
2024-04-10T03:36:02.111Z,5.51
2024-04-10T03:38:29.129Z,5.48
2024-04-10T03:40:55.885Z,5.46
2024-04-10T03:43:22.736Z,5.47
2024-04-10T03:45:50.528Z,5.47
2024-04-10T03:48:17.667Z,5.62
2024-04-10T03:50:44.388Z,5.50
2024-04-10T03:53:11.703Z,5.41
2024-04-10T03:55:39.806Z,5.39
2024-04-10T03:58:06.913Z,5.47
2024-04-10T04:00:35.703Z,5.55
2024-04-10T04:03:02.957Z,5.57
2024-04-10T04:05:30.438Z,5.59
2024-04-10T04:07:57.005Z,5.62
2024-04-10T04:10:23.815Z,5.58
2024-04-10T04:12:50.368Z,5.52
2024-04-10T04:15:16.959Z,5.51
2024-04-10T04:17:43.927Z,5.55
2024-04-10T04:20:12.075Z,5.42
2024-04-10T04:22:39.035Z,5.46
2024-04-10T04:25:06.894Z,5.46
2024-04-10T04:27:34.341Z,5.47
2024-04-10T04:30:01.548Z,5.48
2024-04-10T04:32:29.080Z,5.47
2024-04-10T04:34:56.103Z,5.47
2024-04-10T04:37:23.356Z,5.53
2024-04-10T04:39:50.118Z,5.59
2024-04-10T04:42:17.507Z,5.49
2024-04-10T04:44:44.829Z,5.57
2024-04-10T04:47:11.656Z,5.61
2024-04-10T04:49:38.322Z,5.67
2024-04-10T04:52:06.159Z,5.87
2024-04-10T04:54:32.873Z,5.96
2024-04-10T04:56:59.635Z,6.14
2024-04-10T05:00:54.048Z,6.08
2024-04-10T05:03:39.446Z,6.11
2024-04-10T05:06:08.078Z,6.08
2024-04-10T05:08:34.942Z,6.12
2024-04-10T05:11:08.146Z,6.19
2024-04-10T05:13:36.549Z,6.25
2024-04-10T05:16:03.546Z,6.31
2024-04-10T05:18:30.158Z,6.33
2024-04-10T05:20:56.910Z,6.36
2024-04-10T05:23:23.453Z,6.03
2024-04-10T05:25:51.112Z,5.74
2024-04-10T05:28:18.190Z,5.64
2024-04-10T05:30:44.900Z,5.57
2024-04-10T05:33:11.669Z,5.64
2024-04-10T05:35:38.273Z,5.65
2024-04-10T05:38:05.197Z,5.91
2024-04-10T05:40:31.745Z,6.16
2024-04-10T05:42:58.484Z,6.05
2024-04-10T05:45:25.152Z,5.74
2024-04-10T05:47:52.540Z,5.80
2024-04-10T05:50:19.300Z,5.69
2024-04-10T05:52:46.425Z,5.73
2024-04-10T05:55:13.267Z,5.86
2024-04-10T05:57:40.074Z,5.95
2024-04-10T06:00:10.855Z,5.93
2024-04-10T06:02:40.354Z,6.21
2024-04-10T06:05:08.196Z,6.42
2024-04-10T06:07:37.038Z,6.47
2024-04-10T06:10:06.156Z,6.34
2024-04-10T06:12:33.156Z,6.43
2024-04-10T06:14:59.886Z,6.39
2024-04-10T06:17:28.248Z,6.46
2024-04-10T06:19:58.360Z,6.58
2024-04-10T06:22:25.702Z,6.53
2024-04-10T06:24:53.187Z,6.60
2024-04-10T06:27:19.984Z,6.64
2024-04-10T06:29:48.111Z,6.56
2024-04-10T06:32:15.942Z,6.77
2024-04-10T06:34:43.186Z,6.78
2024-04-10T06:37:09.878Z,6.57
2024-04-10T06:39:36.830Z,6.48
2024-04-10T06:42:03.647Z,6.34
2024-04-10T06:44:30.655Z,6.46
2024-04-10T06:46:57.368Z,6.50
2024-04-10T06:49:24.539Z,6.85
2024-04-10T06:51:51.531Z,6.86
2024-04-10T06:54:22.144Z,6.67
2024-04-10T06:56:49.395Z,7.10
2024-04-10T06:59:17.012Z,7.30
2024-04-10T07:01:43.883Z,7.66
2024-04-10T07:04:10.582Z,7.94
2024-04-10T07:06:37.158Z,7.97
2024-04-10T07:09:04.042Z,8.13
2024-04-10T07:11:32.485Z,8.38
2024-04-10T07:14:01.731Z,8.52
2024-04-10T07:16:29.351Z,8.55
2024-04-10T07:18:59.713Z,8.68
2024-04-10T07:21:26.663Z,8.90
2024-04-10T07:23:56.372Z,9.07
2024-04-10T07:26:26.331Z,8.91
2024-04-10T07:28:57.909Z,8.50
2024-04-10T07:31:35.950Z,8.39
2024-04-10T07:34:04.642Z,8.58
2024-04-10T07:36:36.744Z,9.00
2024-04-10T07:39:08.454Z,8.61
2024-04-10T07:41:37.690Z,8.56
2024-04-10T07:44:06.295Z,8.60
2024-04-10T07:46:32.927Z,8.82
2024-04-10T07:49:00.008Z,8.83
2024-04-10T07:51:30.848Z,7.99
2024-04-10T07:53:57.765Z,8.83
2024-04-10T07:56:24.870Z,8.70
2024-04-10T07:58:51.981Z,9.12
2024-04-10T08:01:19.232Z,9.05
2024-04-10T08:03:46.805Z,9.54
2024-04-10T08:06:14.308Z,9.69
2024-04-10T08:08:41.580Z,9.46
2024-04-10T08:11:13.223Z,9.95
2024-04-10T08:13:41.518Z,10.37
2024-04-10T08:16:13.213Z,10.95
2024-04-10T08:18:42.676Z,11.31
2024-04-10T08:21:11.796Z,12.00
2024-04-10T08:23:39.868Z,12.40
2024-04-10T08:26:21.049Z,13.36
2024-04-10T08:28:50.906Z,13.43
2024-04-10T08:31:22.285Z,14.44
2024-04-10T08:33:49.484Z,14.02
2024-04-10T08:36:17.751Z,14.79
2024-04-10T08:38:45.937Z,14.45
2024-04-10T08:41:20.425Z,15.02
2024-04-10T08:43:48.109Z,16.02
2024-04-10T08:46:16.853Z,15.95
2024-04-10T08:48:45.723Z,14.17
2024-04-10T08:51:20.211Z,13.27
2024-04-10T08:53:47.303Z,14.54
2024-04-10T08:56:16.766Z,15.22
2024-04-10T08:58:47.271Z,14.44
2024-04-10T09:01:39.353Z,14.77
2024-04-10T09:04:10.861Z,15.13
2024-04-10T09:06:39.082Z,13.30
2024-04-10T09:09:08.627Z,12.89
2024-04-10T09:11:38.385Z,12.85
2024-04-10T09:14:09.507Z,11.81
2024-04-10T09:16:37.305Z,11.43
2024-04-10T09:19:14.505Z,11.27
2024-04-10T09:21:42.004Z,11.20
2024-04-10T09:24:10.719Z,11.29
2024-04-10T09:26:38.264Z,11.03
2024-04-10T09:29:06.367Z,11.38
2024-04-10T09:31:35.520Z,11.31
2024-04-10T09:34:02.455Z,11.79
2024-04-10T09:36:34.528Z,12.09
2024-04-10T09:39:01.769Z,11.93
2024-04-10T09:41:29.586Z,11.39
2024-04-10T09:43:56.918Z,11.31
2024-04-10T09:46:23.749Z,11.09
2024-04-10T09:48:55.347Z,11.59
2024-04-10T09:51:23.263Z,12.37
2024-04-10T09:53:50.596Z,12.31
2024-04-10T09:56:17.908Z,12.12
2024-04-10T09:58:45.066Z,12.31
2024-04-10T10:01:11.744Z,12.24
2024-04-10T10:03:38.722Z,12.47
2024-04-10T10:06:09.632Z,13.01
2024-04-10T10:08:36.940Z,13.80
2024-04-10T10:11:10.257Z,13.29
2024-04-10T10:13:45.669Z,14.34
2024-04-10T10:16:15.245Z,15.16
2024-04-10T10:18:42.008Z,15.07
2024-04-10T10:21:12.200Z,15.58
2024-04-10T10:23:41.363Z,15.83
2024-04-10T10:26:09.598Z,14.09
2024-04-10T10:28:37.644Z,14.55
2024-04-10T10:31:12.459Z,15.48
2024-04-10T10:33:40.102Z,15.95
2024-04-10T10:36:07.508Z,17.28
2024-04-10T10:38:34.647Z,17.39
2024-04-10T10:41:17.478Z,17.24
2024-04-10T10:43:46.052Z,16.03
2024-04-10T10:46:12.809Z,16.57
2024-04-10T10:48:39.554Z,16.57
2024-04-10T10:51:09.038Z,16.39
2024-04-10T10:53:36.117Z,16.39
2024-04-10T10:56:02.993Z,15.87
2024-04-10T10:58:30.726Z,17.20
2024-04-10T11:00:57.627Z,17.73
2024-04-10T11:03:29.886Z,16.37
2024-04-10T11:06:13.605Z,16.08
2024-04-10T11:08:40.578Z,16.76
2024-04-10T11:11:10.996Z,16.27
2024-04-10T11:13:48.147Z,15.93
2024-04-10T11:16:25.486Z,16.83
2024-04-10T11:18:52.070Z,16.16
2024-04-10T11:21:18.644Z,16.40
2024-04-10T11:23:45.489Z,16.57
2024-04-10T11:26:12.750Z,16.95
2024-04-10T11:28:39.555Z,16.93
2024-04-10T11:31:06.309Z,16.31
2024-04-10T11:33:33.390Z,15.72
2024-04-10T11:36:00.709Z,15.37
2024-04-10T11:38:27.398Z,15.01
2024-04-10T11:40:54.218Z,14.85
2024-04-10T11:43:20.884Z,14.65
2024-04-10T11:45:48.216Z,14.94
2024-04-10T11:48:15.027Z,14.73
2024-04-10T11:50:42.256Z,14.96
2024-04-10T11:53:08.822Z,14.16
2024-04-10T11:55:35.639Z,13.83
2024-04-10T11:58:02.379Z,13.70
2024-04-10T12:00:28.940Z,14.58
2024-04-10T12:02:55.906Z,15.01
2024-04-10T12:05:23.451Z,14.43
2024-04-10T12:07:50.353Z,13.93
2024-04-10T12:10:16.932Z,14.13
2024-04-10T12:12:51.365Z,15.71
2024-04-10T12:15:17.859Z,16.11
2024-04-10T12:17:45.215Z,16.57
2024-04-10T12:20:12.038Z,18.43
2024-04-10T12:22:38.654Z,18.17
2024-04-10T12:25:05.644Z,17.54
2024-04-10T12:27:32.226Z,17.45
2024-04-10T12:29:59.191Z,17.57
2024-04-10T12:32:26.659Z,15.09
2024-04-10T12:35:00.107Z,14.50
2024-04-10T12:37:45.020Z,13.31
2024-04-10T12:40:11.884Z,13.30
2024-04-10T12:42:40.225Z,13.03
2024-04-10T12:45:07.108Z,13.01
2024-04-10T12:47:34.584Z,12.71
2024-04-10T12:50:01.203Z,12.13
2024-04-10T12:52:27.889Z,12.67
2024-04-10T12:54:54.400Z,12.77
2024-04-10T12:57:21.106Z,13.22
2024-04-10T12:59:50.097Z,13.27
2024-04-10T13:02:16.943Z,14.19
2024-04-10T13:04:43.980Z,14.26
2024-04-10T13:07:10.497Z,14.45
2024-04-10T13:09:37.207Z,14.24
2024-04-10T13:12:05.794Z,14.53
2024-04-10T13:14:34.792Z,14.54
2024-04-10T13:17:01.716Z,15.38
2024-04-10T13:19:30.324Z,15.27
2024-04-10T13:21:56.927Z,17.15
2024-04-10T13:24:23.465Z,17.74
2024-04-10T13:26:50.291Z,17.08
2024-04-10T13:29:16.978Z,17.96
2024-04-10T13:31:43.569Z,19.16
2024-04-10T13:34:10.497Z,18.63
2024-04-10T13:36:37.520Z,18.69
2024-04-10T13:39:04.683Z,18.82
2024-04-10T13:41:32.873Z,18.49
2024-04-10T13:44:00.461Z,17.73
2024-04-10T13:46:27.074Z,16.70
2024-04-10T13:48:55.891Z,16.27
2024-04-10T13:51:27.071Z,15.07
2024-04-10T13:53:55.483Z,15.52
2024-04-10T13:56:22.771Z,14.30
2024-04-10T13:58:50.192Z,13.77
2024-04-10T14:01:22.556Z,13.72
2024-04-10T14:03:52.885Z,12.72
2024-04-10T14:06:24.963Z,13.02
2024-04-10T14:08:53.293Z,13.33
2024-04-10T14:11:20.154Z,13.62
2024-04-10T14:13:47.112Z,13.67
2024-04-10T14:16:13.935Z,13.09
2024-04-10T14:18:41.909Z,13.52
2024-04-10T14:21:12.136Z,13.81
2024-04-10T14:23:44.249Z,14.09
2024-04-10T14:26:12.338Z,14.27
2024-04-10T14:28:39.103Z,14.26
2024-04-10T14:31:10.943Z,15.23
2024-04-10T14:33:40.534Z,16.01
2024-04-10T14:36:08.983Z,14.56
2024-04-10T14:38:36.617Z,14.29
2024-04-10T14:41:04.441Z,13.98
2024-04-10T14:43:33.082Z,13.60
2024-04-10T14:46:06.535Z,13.05
2024-04-10T14:48:34.220Z,13.43
2024-04-10T14:51:01.867Z,13.70
2024-04-10T14:53:29.753Z,12.96
2024-04-10T14:56:17.773Z,14.01
2024-04-10T14:58:44.568Z,13.79
2024-04-10T15:01:14.594Z,13.97
2024-04-10T15:03:41.890Z,14.54
2024-04-10T15:06:08.692Z,14.63
2024-04-10T15:08:35.689Z,14.18
2024-04-10T15:11:02.647Z,14.17
2024-04-10T15:13:30.233Z,13.93
2024-04-10T15:15:57.130Z,14.18
2024-04-10T15:18:27.740Z,14.37
2024-04-10T15:21:01.435Z,13.99
2024-04-10T15:23:28.511Z,13.47
2024-04-10T15:25:58.857Z,13.77
2024-04-10T15:28:28.932Z,13.59
2024-04-10T15:31:01.584Z,14.17
2024-04-10T15:33:30.367Z,14.70
2024-04-10T15:36:04.768Z,14.81
2024-04-10T15:38:36.880Z,14.96
2024-04-10T15:41:06.795Z,14.11
2024-04-10T15:43:33.923Z,14.02
2024-04-10T15:46:02.512Z,13.81
2024-04-10T15:48:29.858Z,14.05
2024-04-10T15:50:58.458Z,13.91
2024-04-10T15:53:25.990Z,14.50
2024-04-10T15:56:01.015Z,14.28
2024-04-10T15:58:28.688Z,14.37
2024-04-10T16:01:09.723Z,14.13
2024-04-10T16:03:41.841Z,13.72
2024-04-10T16:06:13.740Z,13.77
2024-04-10T16:08:41.771Z,13.23
2024-04-10T16:11:26.911Z,13.59
2024-04-10T16:13:53.569Z,13.86
2024-04-10T16:16:21.702Z,13.78
2024-04-10T16:18:50.185Z,13.18
2024-04-10T16:21:17.430Z,12.67
2024-04-10T16:23:47.798Z,13.04
2024-04-10T16:26:19.112Z,13.13
2024-04-10T16:28:46.516Z,13.23
2024-04-10T16:31:18.441Z,13.33
2024-04-10T16:33:51.633Z,12.93
2024-04-10T16:36:19.431Z,13.24
2024-04-10T16:38:46.998Z,13.03
2024-04-10T16:41:18.858Z,12.76
2024-04-10T16:43:46.282Z,13.00
2024-04-10T16:46:13.716Z,13.19
2024-04-10T16:48:40.610Z,13.04
2024-04-10T16:51:09.165Z,13.18
2024-04-10T16:53:36.693Z,13.08
2024-04-10T16:56:04.208Z,13.00
2024-04-10T16:58:31.022Z,13.11
2024-04-10T17:01:11.474Z,12.93
2024-04-10T17:03:41.528Z,12.63
2024-04-10T17:06:08.756Z,12.43
2024-04-10T17:08:35.865Z,12.46
2024-04-10T17:11:02.819Z,12.23
2024-04-10T17:13:29.644Z,12.34
2024-04-10T17:15:56.230Z,12.37
2024-04-10T17:18:41.514Z,12.30
2024-04-10T17:21:26.863Z,12.14
2024-04-10T17:23:54.559Z,11.88
2024-04-10T17:26:23.775Z,11.52
2024-04-10T17:28:52.796Z,11.37
2024-04-10T17:31:26.519Z,11.26
2024-04-10T17:33:53.854Z,11.24
2024-04-10T17:36:20.736Z,11.15
2024-04-10T17:38:47.295Z,10.91
2024-04-10T17:41:14.220Z,10.87
2024-04-10T17:43:43.540Z,10.76
2024-04-10T17:46:11.677Z,10.80
2024-04-10T17:48:40.116Z,10.74
2024-04-10T17:51:14.280Z,10.57
2024-04-10T17:53:42.136Z,10.29
2024-04-10T17:56:09.014Z,10.02
2024-04-10T17:58:35.885Z,9.87
2024-04-10T18:01:04.690Z,9.69
2024-04-10T18:03:34.597Z,9.54
2024-04-10T18:06:09.483Z,9.39
2024-04-10T18:08:36.744Z,9.15
2024-04-10T18:11:04.195Z,9.02
2024-04-10T18:13:32.570Z,8.94
2024-04-10T18:16:00.349Z,8.83
2024-04-10T18:18:27.294Z,8.71
2024-04-10T18:21:01.752Z,8.56
2024-04-10T18:23:32.478Z,8.44
2024-04-10T18:26:09.823Z,8.12
2024-04-10T18:28:38.583Z,7.86
2024-04-10T18:31:06.638Z,7.86
2024-04-10T18:33:34.558Z,7.81
2024-04-10T18:36:05.104Z,7.75
2024-04-10T18:38:32.642Z,7.68
2024-04-10T18:41:06.796Z,7.61
2024-04-10T18:43:37.074Z,7.41
2024-04-10T18:46:07.988Z,7.39
2024-04-10T18:48:38.463Z,7.32
2024-04-10T18:51:24.221Z,7.16
2024-04-10T18:53:51.182Z,7.03
2024-04-10T18:56:18.811Z,6.91
2024-04-10T18:58:46.089Z,6.85
2024-04-10T19:01:13.911Z,6.75
2024-04-10T19:03:42.514Z,6.68
2024-04-10T19:06:11.687Z,6.60
2024-04-10T19:08:39.658Z,6.53
2024-04-10T19:11:07.774Z,6.48
2024-04-10T19:13:34.971Z,6.38
2024-04-10T19:16:02.117Z,6.33
2024-04-10T19:18:31.726Z,6.27
2024-04-10T19:20:59.676Z,6.30
2024-04-10T19:23:26.747Z,6.26
2024-04-10T19:25:58.324Z,6.18
2024-04-10T19:28:27.561Z,6.07
2024-04-10T19:30:55.980Z,6.03
2024-04-10T19:33:24.729Z,5.92
2024-04-10T19:35:52.717Z,5.85
2024-04-10T19:38:20.027Z,5.79
2024-04-10T19:40:47.618Z,5.66
2024-04-10T19:43:14.211Z,5.68
2024-04-10T19:45:41.073Z,5.61
2024-04-10T19:48:08.420Z,5.45
2024-04-10T19:50:35.425Z,5.45
2024-04-10T19:53:01.979Z,5.35
2024-04-10T19:55:28.548Z,5.28
2024-04-10T19:57:55.174Z,5.25
2024-04-10T20:00:21.743Z,5.17
2024-04-10T20:02:49.475Z,5.14
2024-04-10T20:05:19.098Z,5.07
2024-04-10T20:07:47.433Z,5.06
2024-04-10T20:10:14.085Z,4.97
2024-04-10T20:12:40.691Z,4.96
2024-04-10T20:15:07.963Z,4.95
2024-04-10T20:17:34.966Z,4.96
2024-04-10T20:20:02.068Z,4.91
2024-04-10T20:22:28.593Z,4.85
2024-04-10T20:24:57.342Z,4.84
2024-04-10T20:27:23.933Z,4.80
2024-04-10T20:29:53.383Z,4.73
2024-04-10T20:32:20.881Z,4.63
2024-04-10T20:34:47.648Z,4.55
2024-04-10T20:37:14.800Z,4.47
2024-04-10T20:39:44.033Z,4.55
2024-04-10T20:42:12.557Z,4.57
2024-04-10T20:44:39.929Z,4.49
2024-04-10T20:47:06.576Z,4.33
2024-04-10T20:51:59.654Z,4.19
2024-04-10T20:54:26.164Z,4.20
2024-04-10T20:56:52.718Z,4.14
2024-04-10T20:59:19.389Z,4.09
2024-04-10T21:01:47.504Z,4.13
2024-04-10T21:04:17.890Z,4.06
2024-04-10T21:06:44.613Z,4.01
2024-04-10T21:09:29.831Z,4.04
2024-04-10T21:12:14.738Z,3.93
2024-04-10T21:15:00.020Z,3.84
2024-04-10T21:17:45.340Z,3.71
2024-04-10T21:20:30.957Z,3.66
2024-04-10T21:23:16.774Z,3.64
2024-04-10T21:26:02.294Z,3.59
2024-04-10T21:28:47.281Z,3.67
2024-04-10T21:31:32.364Z,3.71
2024-04-10T21:34:17.444Z,3.65
2024-04-10T21:37:02.788Z,3.55
2024-04-10T21:39:48.103Z,3.47
2024-04-10T21:42:33.465Z,3.56
2024-04-10T21:45:18.414Z,3.57
2024-04-10T21:48:05.482Z,3.50
2024-04-10T21:50:51.335Z,3.49
2024-04-10T21:53:37.406Z,3.47
2024-04-10T21:56:25.789Z,3.38
2024-04-10T21:59:12.160Z,3.37
2024-04-10T22:02:05.984Z,3.32
2024-04-10T22:04:56.682Z,3.24
2024-04-10T22:07:43.174Z,3.16
2024-04-10T22:10:10.046Z,3.07
2024-04-10T22:12:36.750Z,2.97
2024-04-10T22:15:03.542Z,2.90
2024-04-10T22:17:49.224Z,2.75
2024-04-10T22:20:35.079Z,2.86
2024-04-10T22:23:20.484Z,2.82
2024-04-10T22:25:51.890Z,2.76
2024-04-10T22:28:20.714Z,2.73
2024-04-10T22:30:47.228Z,2.72
2024-04-10T22:33:15.377Z,2.77
2024-04-10T22:35:42.267Z,2.76
2024-04-10T22:38:09.059Z,2.82
2024-04-10T22:40:38.810Z,2.81
2024-04-10T22:43:05.579Z,2.78
2024-04-10T22:45:32.175Z,2.70
2024-04-10T22:47:58.888Z,2.61
2024-04-10T22:50:26.668Z,2.59
2024-04-10T22:52:53.349Z,2.62
2024-04-10T22:55:21.374Z,2.63
2024-04-10T22:57:48.117Z,2.57
2024-04-10T23:00:15.345Z,2.51
2024-04-10T23:02:42.196Z,2.44
2024-04-10T23:05:22.653Z,2.39
2024-04-10T23:08:16.390Z,2.40
2024-04-10T23:10:42.245Z,2.44
2024-04-10T23:13:09.140Z,2.38
2024-04-10T23:15:36.078Z,2.28
2024-04-10T23:18:03.894Z,2.38
2024-04-10T23:20:30.710Z,2.31
2024-04-10T23:22:57.412Z,2.21
2024-04-10T23:25:24.256Z,2.11
2024-04-10T23:27:51.988Z,2.13
2024-04-10T23:30:18.768Z,2.12
2024-04-10T23:32:45.500Z,2.15
2024-04-10T23:35:12.387Z,2.22
2024-04-10T23:37:38.941Z,2.17
2024-04-10T23:40:06.166Z,2.16
2024-04-10T23:42:33.708Z,2.10
2024-04-10T23:45:00.356Z,1.99
2024-04-10T23:47:27.281Z,1.92
2024-04-10T23:49:53.855Z,1.96
2024-04-10T23:52:20.719Z,1.91
2024-04-10T23:54:47.236Z,1.89
2024-04-10T23:57:13.770Z,1.88
2024-04-10T23:59:40.547Z,1.87
